sensor_id;sensor_type;location;lat;lon;timestamp;temperature;humidity
74484;SHT31;62942;52.462;10.846;2023-07-16T00:00:27;21.3;82.1
74484;SHT31;62942;52.462;10.846;2023-07-16T00:01:36;21.3;82.2
74484;SHT31;62942;52.462;10.846;2023-07-16T00:02:37;21.3;82.2
74484;SHT31;62942;52.462;10.846;2023-07-16T00:03:47;21.3;82.2
74484;SHT31;62942;52.462;10.846;2023-07-16T00:04:47;21.2;82.2
74484;SHT31;62942;52.462;10.846;2023-07-16T00:05:56;21.2;82.2
74484;SHT31;62942;52.462;10.846;2023-07-16T00:06:56;21.3;82.3
74484;SHT31;62942;52.462;10.846;2023-07-16T00:08:07;21.3;82.2
74484;SHT31;62942;52.462;10.846;2023-07-16T00:09:17;21.3;82.4
74484;SHT31;62942;52.462;10.846;2023-07-16T00:10:17;21.3;82.4
74484;SHT31;62942;52.462;10.846;2023-07-16T00:11:26;21.3;82.5
74484;SHT31;62942;52.462;10.846;2023-07-16T00:12:26;21.3;82.6
74484;SHT31;62942;52.462;10.846;2023-07-16T00:13:26;21.3;82.7
74484;SHT31;62942;52.462;10.846;2023-07-16T00:14:37;21.3;82.8
74484;SHT31;62942;52.462;10.846;2023-07-16T00:15:46;21.2;83
74484;SHT31;62942;52.462;10.846;2023-07-16T00:16:57;21.2;83
74484;SHT31;62942;52.462;10.846;2023-07-16T00:18:07;21.3;83.1
74484;SHT31;62942;52.462;10.846;2023-07-16T00:19:09;21.2;83.3
74484;SHT31;62942;52.462;10.846;2023-07-16T00:20:07;21.2;83.4
74484;SHT31;62942;52.462;10.846;2023-07-16T00:21:17;21.2;83.7
74484;SHT31;62942;52.462;10.846;2023-07-16T00:22:26;21.2;83.8
74484;SHT31;62942;52.462;10.846;2023-07-16T00:23:27;21.2;83.8
74484;SHT31;62942;52.462;10.846;2023-07-16T00:24:37;21.2;83.8
74484;SHT31;62942;52.462;10.846;2023-07-16T00:25:36;21.2;83.9
74484;SHT31;62942;52.462;10.846;2023-07-16T00:26:47;21.2;84.2
74484;SHT31;62942;52.462;10.846;2023-07-16T00:27:57;21.1;84.3
74484;SHT31;62942;52.462;10.846;2023-07-16T00:29:07;21.1;84.3
74484;SHT31;62942;52.462;10.846;2023-07-16T00:30:07;21.1;84.5
74484;SHT31;62942;52.462;10.846;2023-07-16T00:31:16;21.1;84.7
74484;SHT31;62942;52.462;10.846;2023-07-16T00:32:26;21.1;84.8
74484;SHT31;62942;52.462;10.846;2023-07-16T00:33:36;21.1;84.9
74484;SHT31;62942;52.462;10.846;2023-07-16T00:34:46;21.1;84.9
74484;SHT31;62942;52.462;10.846;2023-07-16T00:35:57;21.1;84.9
74484;SHT31;62942;52.462;10.846;2023-07-16T00:37:06;21;85
74484;SHT31;62942;52.462;10.846;2023-07-16T00:38:17;21;85.1
74484;SHT31;62942;52.462;10.846;2023-07-16T00:39:16;21;85.2
74484;SHT31;62942;52.462;10.846;2023-07-16T00:40:17;21;85.2
74484;SHT31;62942;52.462;10.846;2023-07-16T00:41:27;21;85.2
74484;SHT31;62942;52.462;10.846;2023-07-16T00:42:36;21;85.4
74484;SHT31;62942;52.462;10.846;2023-07-16T00:43:46;21;85.4
74484;SHT31;62942;52.462;10.846;2023-07-16T00:44:46;21;85.6
74484;SHT31;62942;52.462;10.846;2023-07-16T00:45:56;21;85.9
74484;SHT31;62942;52.462;10.846;2023-07-16T00:47:06;21;85.7
74484;SHT31;62942;52.462;10.846;2023-07-16T00:48:16;21;85.8
74484;SHT31;62942;52.462;10.846;2023-07-16T00:49:16;21;85.9
74484;SHT31;62942;52.462;10.846;2023-07-16T00:50:26;21;86
74484;SHT31;62942;52.462;10.846;2023-07-16T00:51:36;21;85.9
74484;SHT31;62942;52.462;10.846;2023-07-16T00:52:37;21;86
74484;SHT31;62942;52.462;10.846;2023-07-16T00:53:46;21;86.1
74484;SHT31;62942;52.462;10.846;2023-07-16T00:54:56;21;86
74484;SHT31;62942;52.462;10.846;2023-07-16T00:56:07;21;86
74484;SHT31;62942;52.462;10.846;2023-07-16T00:57:16;21;86
74484;SHT31;62942;52.462;10.846;2023-07-16T00:58:26;21;86.1
74484;SHT31;62942;52.462;10.846;2023-07-16T00:59:26;21;86.2
74484;SHT31;62942;52.462;10.846;2023-07-16T01:00:37;21;86.2
74484;SHT31;62942;52.462;10.846;2023-07-16T01:01:37;21;86.3
74484;SHT31;62942;52.462;10.846;2023-07-16T01:02:46;21;86.2
74484;SHT31;62942;52.462;10.846;2023-07-16T01:03:46;21;86.3
74484;SHT31;62942;52.462;10.846;2023-07-16T01:04:56;21;86.2
74484;SHT31;62942;52.462;10.846;2023-07-16T01:06:09;21;86.2
74484;SHT31;62942;52.462;10.846;2023-07-16T01:07:16;21;86.3
74484;SHT31;62942;52.462;10.846;2023-07-16T01:08:18;21;86.3
74484;SHT31;62942;52.462;10.846;2023-07-16T01:09:17;21;86.4
74484;SHT31;62942;52.462;10.846;2023-07-16T01:10:27;21;86.4
74484;SHT31;62942;52.462;10.846;2023-07-16T01:11:36;21;86.4
74484;SHT31;62942;52.462;10.846;2023-07-16T01:12:47;21;86.4
74484;SHT31;62942;52.462;10.846;2023-07-16T01:13:57;21;86.6
74484;SHT31;62942;52.462;10.846;2023-07-16T01:15:07;21;86.7
74484;SHT31;62942;52.462;10.846;2023-07-16T01:16:18;21;86.5
74484;SHT31;62942;52.462;10.846;2023-07-16T01:17:16;21;86.5
74484;SHT31;62942;52.462;10.846;2023-07-16T01:18:26;21;86.4
74484;SHT31;62942;52.462;10.846;2023-07-16T01:19:36;21;86.4
74484;SHT31;62942;52.462;10.846;2023-07-16T01:20:36;21;86.3
74484;SHT31;62942;52.462;10.846;2023-07-16T01:21:38;21;86.3
74484;SHT31;62942;52.462;10.846;2023-07-16T01:22:50;21;86.2
74484;SHT31;62942;52.462;10.846;2023-07-16T01:23:50;20.9;86.2
74484;SHT31;62942;52.462;10.846;2023-07-16T01:25:00;20.9;86.2
74484;SHT31;62942;52.462;10.846;2023-07-16T01:26:01;20.9;85.9
74484;SHT31;62942;52.462;10.846;2023-07-16T01:27:14;20.9;85.8
74484;SHT31;62942;52.462;10.846;2023-07-16T01:28:21;20.9;85.5
74484;SHT31;62942;52.462;10.846;2023-07-16T01:29:33;20.8;85.5
74484;SHT31;62942;52.462;10.846;2023-07-16T01:30:26;20.9;85.4
74484;SHT31;62942;52.462;10.846;2023-07-16T01:31:26;20.8;85.3
74484;SHT31;62942;52.462;10.846;2023-07-16T01:32:37;20.8;85
74484;SHT31;62942;52.462;10.846;2023-07-16T01:33:46;20.8;85
74484;SHT31;62942;52.462;10.846;2023-07-16T01:34:46;20.8;85
74484;SHT31;62942;52.462;10.846;2023-07-16T01:35:56;20.8;85.1
74484;SHT31;62942;52.462;10.846;2023-07-16T01:37:06;20.8;85
74484;SHT31;62942;52.462;10.846;2023-07-16T01:38:07;20.7;85.2
74484;SHT31;62942;52.462;10.846;2023-07-16T01:39:16;20.7;85.4
74484;SHT31;62942;52.462;10.846;2023-07-16T01:40:16;20.7;85.5
74484;SHT31;62942;52.462;10.846;2023-07-16T01:41:26;20.7;85.6
74484;SHT31;62942;52.462;10.846;2023-07-16T01:42:36;20.7;85.6
74484;SHT31;62942;52.462;10.846;2023-07-16T01:43:36;20.6;85.8
74484;SHT31;62942;52.462;10.846;2023-07-16T01:44:46;20.6;86
74484;SHT31;62942;52.462;10.846;2023-07-16T01:45:46;20.5;86.2
74484;SHT31;62942;52.462;10.846;2023-07-16T01:47:03;20.5;86.5
74484;SHT31;62942;52.462;10.846;2023-07-16T01:48:09;20.4;86.7
74484;SHT31;62942;52.462;10.846;2023-07-16T01:49:06;20.4;86.9
74484;SHT31;62942;52.462;10.846;2023-07-16T01:50:07;20.3;87
74484;SHT31;62942;52.462;10.846;2023-07-16T01:51:06;20.3;87.1
74484;SHT31;62942;52.462;10.846;2023-07-16T01:52:16;20.2;87.3
74484;SHT31;62942;52.462;10.846;2023-07-16T01:53:26;20.2;87.4
74484;SHT31;62942;52.462;10.846;2023-07-16T01:54:36;20.2;87.5
74484;SHT31;62942;52.462;10.846;2023-07-16T01:55:36;20.1;87.9
74484;SHT31;62942;52.462;10.846;2023-07-16T01:56:46;20.1;88.1
74484;SHT31;62942;52.462;10.846;2023-07-16T01:57:46;20.1;87.7
74484;SHT31;62942;52.462;10.846;2023-07-16T01:58:56;20;88
74484;SHT31;62942;52.462;10.846;2023-07-16T01:59:56;20;88
74484;SHT31;62942;52.462;10.846;2023-07-16T02:01:06;20;88
74484;SHT31;62942;52.462;10.846;2023-07-16T02:02:06;20;88.1
74484;SHT31;62942;52.462;10.846;2023-07-16T02:03:16;19.9;88.1
74484;SHT31;62942;52.462;10.846;2023-07-16T02:04:16;19.9;88.2
74484;SHT31;62942;52.462;10.846;2023-07-16T02:05:26;19.9;88.4
74484;SHT31;62942;52.462;10.846;2023-07-16T02:06:26;19.9;88.3
74484;SHT31;62942;52.462;10.846;2023-07-16T02:07:36;19.9;88.5
74484;SHT31;62942;52.462;10.846;2023-07-16T02:08:46;19.9;88.5
74484;SHT31;62942;52.462;10.846;2023-07-16T02:09:46;19.9;88.4
74484;SHT31;62942;52.462;10.846;2023-07-16T02:10:56;19.8;88.5
74484;SHT31;62942;52.462;10.846;2023-07-16T02:12:06;19.8;88.5
74484;SHT31;62942;52.462;10.846;2023-07-16T02:13:06;19.8;88.6
74484;SHT31;62942;52.462;10.846;2023-07-16T02:14:16;19.8;88.7
74484;SHT31;62942;52.462;10.846;2023-07-16T02:15:26;19.8;88.7
74484;SHT31;62942;52.462;10.846;2023-07-16T02:16:36;19.8;88.8
74484;SHT31;62942;52.462;10.846;2023-07-16T02:17:36;19.8;89
74484;SHT31;62942;52.462;10.846;2023-07-16T02:18:46;19.8;89
74484;SHT31;62942;52.462;10.846;2023-07-16T02:19:56;19.7;88.9
74484;SHT31;62942;52.462;10.846;2023-07-16T02:20:56;19.7;88.8
74484;SHT31;62942;52.462;10.846;2023-07-16T02:22:07;19.7;88.4
74484;SHT31;62942;52.462;10.846;2023-07-16T02:23:16;19.7;88.6
74484;SHT31;62942;52.462;10.846;2023-07-16T02:24:26;19.7;88.4
74484;SHT31;62942;52.462;10.846;2023-07-16T02:25:26;19.7;88.7
74484;SHT31;62942;52.462;10.846;2023-07-16T02:26:26;19.7;88.8
74484;SHT31;62942;52.462;10.846;2023-07-16T02:27:36;19.7;88.9
74484;SHT31;62942;52.462;10.846;2023-07-16T02:28:36;19.7;88.9
74484;SHT31;62942;52.462;10.846;2023-07-16T02:29:46;19.7;89.3
74484;SHT31;62942;52.462;10.846;2023-07-16T02:30:57;19.7;89.4
74484;SHT31;62942;52.462;10.846;2023-07-16T02:31:56;19.7;89.3
74484;SHT31;62942;52.462;10.846;2023-07-16T02:32:56;19.7;89.3
74484;SHT31;62942;52.462;10.846;2023-07-16T02:34:06;19.6;89.3
74484;SHT31;62942;52.462;10.846;2023-07-16T02:35:06;19.6;89.3
74484;SHT31;62942;52.462;10.846;2023-07-16T02:36:16;19.6;89.2
74484;SHT31;62942;52.462;10.846;2023-07-16T02:37:26;19.6;89
74484;SHT31;62942;52.462;10.846;2023-07-16T02:38:26;19.6;89
74484;SHT31;62942;52.462;10.846;2023-07-16T02:39:37;19.5;89
74484;SHT31;62942;52.462;10.846;2023-07-16T02:40:47;19.5;88.9
74484;SHT31;62942;52.462;10.846;2023-07-16T02:41:46;19.5;88.9
74484;SHT31;62942;52.462;10.846;2023-07-16T02:42:56;19.5;89
74484;SHT31;62942;52.462;10.846;2023-07-16T02:44:00;19.5;88.9
74484;SHT31;62942;52.462;10.846;2023-07-16T02:45:07;19.4;88.8
74484;SHT31;62942;52.462;10.846;2023-07-16T02:46:06;19.4;88.9
74484;SHT31;62942;52.462;10.846;2023-07-16T02:47:16;19.3;89.1
74484;SHT31;62942;52.462;10.846;2023-07-16T02:48:26;19.3;89.2
74484;SHT31;62942;52.462;10.846;2023-07-16T02:49:26;19.3;89.4
74484;SHT31;62942;52.462;10.846;2023-07-16T02:50:37;19.2;89.4
74484;SHT31;62942;52.462;10.846;2023-07-16T02:51:36;19.2;89.5
74484;SHT31;62942;52.462;10.846;2023-07-16T02:52:46;19.2;89.5
74484;SHT31;62942;52.462;10.846;2023-07-16T02:53:46;19.1;89.7
74484;SHT31;62942;52.462;10.846;2023-07-16T02:54:56;19.1;89.6
74484;SHT31;62942;52.462;10.846;2023-07-16T02:55:56;19.1;89.8
74484;SHT31;62942;52.462;10.846;2023-07-16T02:57:06;19.1;89.9
74484;SHT31;62942;52.462;10.846;2023-07-16T02:58:16;19;90.1
74484;SHT31;62942;52.462;10.846;2023-07-16T02:59:16;19;90.1
74484;SHT31;62942;52.462;10.846;2023-07-16T03:00:26;19;90.2
74484;SHT31;62942;52.462;10.846;2023-07-16T03:01:36;19;90.3
74484;SHT31;62942;52.462;10.846;2023-07-16T03:02:36;19;90.2
74484;SHT31;62942;52.462;10.846;2023-07-16T03:03:46;19;90.2
74484;SHT31;62942;52.462;10.846;2023-07-16T03:04:46;19;90.1
74484;SHT31;62942;52.462;10.846;2023-07-16T03:05:56;18.9;90
74484;SHT31;62942;52.462;10.846;2023-07-16T03:07:06;18.9;90
74484;SHT31;62942;52.462;10.846;2023-07-16T03:08:06;18.9;89.9
74484;SHT31;62942;52.462;10.846;2023-07-16T03:09:16;18.9;89.8
74484;SHT31;62942;52.462;10.846;2023-07-16T03:10:16;18.9;89.7
74484;SHT31;62942;52.462;10.846;2023-07-16T03:11:26;18.9;89.6
74484;SHT31;62942;52.462;10.846;2023-07-16T03:12:26;18.9;89.7
74484;SHT31;62942;52.462;10.846;2023-07-16T03:13:36;18.9;89.7
74484;SHT31;62942;52.462;10.846;2023-07-16T03:14:47;18.9;89.9
74484;SHT31;62942;52.462;10.846;2023-07-16T03:15:46;18.9;89.9
74484;SHT31;62942;52.462;10.846;2023-07-16T03:16:56;18.8;89.9
74484;SHT31;62942;52.462;10.846;2023-07-16T03:18:06;18.8;89.8
74484;SHT31;62942;52.462;10.846;2023-07-16T03:19:16;18.8;89.9
74484;SHT31;62942;52.462;10.846;2023-07-16T03:20:26;18.8;90
74484;SHT31;62942;52.462;10.846;2023-07-16T03:21:26;18.8;90
74484;SHT31;62942;52.462;10.846;2023-07-16T03:22:36;18.8;90.1
74484;SHT31;62942;52.462;10.846;2023-07-16T03:23:46;18.8;90.2
74484;SHT31;62942;52.462;10.846;2023-07-16T03:24:46;18.8;90.2
74484;SHT31;62942;52.462;10.846;2023-07-16T03:25:46;18.8;90.2
74484;SHT31;62942;52.462;10.846;2023-07-16T03:26:56;18.8;90.1
74484;SHT31;62942;52.462;10.846;2023-07-16T03:27:56;18.8;90.2
74484;SHT31;62942;52.462;10.846;2023-07-16T03:29:06;18.7;90.2
74484;SHT31;62942;52.462;10.846;2023-07-16T03:30:16;18.7;90.3
74484;SHT31;62942;52.462;10.846;2023-07-16T03:31:16;18.7;90.2
74484;SHT31;62942;52.462;10.846;2023-07-16T03:32:16;18.7;90.3
74484;SHT31;62942;52.462;10.846;2023-07-16T03:33:26;18.7;90.4
74484;SHT31;62942;52.462;10.846;2023-07-16T03:34:26;18.6;90.5
74484;SHT31;62942;52.462;10.846;2023-07-16T03:35:36;18.7;90.6
74484;SHT31;62942;52.462;10.846;2023-07-16T03:36:46;18.6;90.7
74484;SHT31;62942;52.462;10.846;2023-07-16T03:37:46;18.6;90.8
74484;SHT31;62942;52.462;10.846;2023-07-16T03:38:56;18.6;90.9
74484;SHT31;62942;52.462;10.846;2023-07-16T03:40:12;18.6;90.9
74484;SHT31;62942;52.462;10.846;2023-07-16T03:41:16;18.6;91
74484;SHT31;62942;52.462;10.846;2023-07-16T03:42:26;18.6;91
74484;SHT31;62942;52.462;10.846;2023-07-16T03:43:36;18.6;91.1
74484;SHT31;62942;52.462;10.846;2023-07-16T03:44:46;18.6;91.1
74484;SHT31;62942;52.462;10.846;2023-07-16T03:45:46;18.6;91.1
74484;SHT31;62942;52.462;10.846;2023-07-16T03:46:56;18.5;91.1
74484;SHT31;62942;52.462;10.846;2023-07-16T03:47:56;18.5;91
74484;SHT31;62942;52.462;10.846;2023-07-16T03:49:06;18.6;90.9
74484;SHT31;62942;52.462;10.846;2023-07-16T03:50:16;18.5;91
74484;SHT31;62942;52.462;10.846;2023-07-16T03:51:16;18.5;91
74484;SHT31;62942;52.462;10.846;2023-07-16T03:52:26;18.5;91.1
74484;SHT31;62942;52.462;10.846;2023-07-16T03:53:37;18.5;91.1
74484;SHT31;62942;52.462;10.846;2023-07-16T03:54:36;18.5;91.2
74484;SHT31;62942;52.462;10.846;2023-07-16T03:55:46;18.5;91.2
74484;SHT31;62942;52.462;10.846;2023-07-16T03:56:56;18.5;91.3
74484;SHT31;62942;52.462;10.846;2023-07-16T03:57:56;18.5;91.4
74484;SHT31;62942;52.462;10.846;2023-07-16T03:58:56;18.5;91.3
74484;SHT31;62942;52.462;10.846;2023-07-16T04:00:06;18.5;91.3
74484;SHT31;62942;52.462;10.846;2023-07-16T04:01:06;18.5;91.3
74484;SHT31;62942;52.462;10.846;2023-07-16T04:02:16;18.5;91.3
74484;SHT31;62942;52.462;10.846;2023-07-16T04:03:26;18.5;91.3
74484;SHT31;62942;52.462;10.846;2023-07-16T04:04:26;18.5;91.4
74484;SHT31;62942;52.462;10.846;2023-07-16T04:05:26;18.5;91.4
74484;SHT31;62942;52.462;10.846;2023-07-16T04:06:36;18.5;91.6
74484;SHT31;62942;52.462;10.846;2023-07-16T04:07:36;18.5;91.7
74484;SHT31;62942;52.462;10.846;2023-07-16T04:08:46;18.5;91.8
74484;SHT31;62942;52.462;10.846;2023-07-16T04:09:56;18.5;91.8
74484;SHT31;62942;52.462;10.846;2023-07-16T04:11:06;18.5;91.8
74484;SHT31;62942;52.462;10.846;2023-07-16T04:12:06;18.5;91.8
74484;SHT31;62942;52.462;10.846;2023-07-16T04:13:16;18.5;91.8
74484;SHT31;62942;52.462;10.846;2023-07-16T04:14:26;18.5;91.8
74484;SHT31;62942;52.462;10.846;2023-07-16T04:15:36;18.5;91.8
74484;SHT31;62942;52.462;10.846;2023-07-16T04:16:36;18.5;91.8
74484;SHT31;62942;52.462;10.846;2023-07-16T04:17:46;18.5;91.8
74484;SHT31;62942;52.462;10.846;2023-07-16T04:18:46;18.5;91.8
74484;SHT31;62942;52.462;10.846;2023-07-16T04:19:46;18.5;91.7
74484;SHT31;62942;52.462;10.846;2023-07-16T04:20:56;18.5;91.7
74484;SHT31;62942;52.462;10.846;2023-07-16T04:21:56;18.5;91.7
74484;SHT31;62942;52.462;10.846;2023-07-16T04:22:56;18.5;91.6
74484;SHT31;62942;52.462;10.846;2023-07-16T04:24:06;18.5;91.6
74484;SHT31;62942;52.462;10.846;2023-07-16T04:25:06;18.5;91.6
74484;SHT31;62942;52.462;10.846;2023-07-16T04:26:06;18.5;91.6
74484;SHT31;62942;52.462;10.846;2023-07-16T04:27:16;18.6;91.5
74484;SHT31;62942;52.462;10.846;2023-07-16T04:28:16;18.6;91.5
74484;SHT31;62942;52.462;10.846;2023-07-16T04:29:26;18.7;91.4
74484;SHT31;62942;52.462;10.846;2023-07-16T04:30:26;18.8;91.4
74484;SHT31;62942;52.462;10.846;2023-07-16T04:31:36;18.8;91.4
74484;SHT31;62942;52.462;10.846;2023-07-16T04:32:36;18.9;91.3
74484;SHT31;62942;52.462;10.846;2023-07-16T04:33:46;18.9;91.1
74484;SHT31;62942;52.462;10.846;2023-07-16T04:34:56;19;91
74484;SHT31;62942;52.462;10.846;2023-07-16T04:35:56;19;90.9
74484;SHT31;62942;52.462;10.846;2023-07-16T04:37:06;19;90.8
74484;SHT31;62942;52.462;10.846;2023-07-16T04:38:16;19.1;90.7
74484;SHT31;62942;52.462;10.846;2023-07-16T04:39:16;19.1;90.6
74484;SHT31;62942;52.462;10.846;2023-07-16T04:40:16;19.1;90.7
74484;SHT31;62942;52.462;10.846;2023-07-16T04:41:26;19.2;90.6
74484;SHT31;62942;52.462;10.846;2023-07-16T04:42:26;19.2;90.7
74484;SHT31;62942;52.462;10.846;2023-07-16T04:43:36;19.2;90.6
74484;SHT31;62942;52.462;10.846;2023-07-16T04:44:36;19.3;90.6
74484;SHT31;62942;52.462;10.846;2023-07-16T04:45:46;19.3;90.5
74484;SHT31;62942;52.462;10.846;2023-07-16T04:46:46;19.3;90.4
74484;SHT31;62942;52.462;10.846;2023-07-16T04:47:56;19.4;90.3
74484;SHT31;62942;52.462;10.846;2023-07-16T04:48:56;19.4;90.3
74484;SHT31;62942;52.462;10.846;2023-07-16T04:50:06;19.4;90.3
74484;SHT31;62942;52.462;10.846;2023-07-16T04:51:06;19.4;90.3
74484;SHT31;62942;52.462;10.846;2023-07-16T04:52:16;19.5;90.3
74484;SHT31;62942;52.462;10.846;2023-07-16T04:53:16;19.5;90.2
74484;SHT31;62942;52.462;10.846;2023-07-16T04:54:16;19.6;90.3
74484;SHT31;62942;52.462;10.846;2023-07-16T04:55:26;19.6;90.1
74484;SHT31;62942;52.462;10.846;2023-07-16T04:56:26;19.7;89.9
74484;SHT31;62942;52.462;10.846;2023-07-16T04:57:26;19.7;89.9
74484;SHT31;62942;52.462;10.846;2023-07-16T04:58:36;19.8;89.8
74484;SHT31;62942;52.462;10.846;2023-07-16T04:59:46;19.8;89.7
74484;SHT31;62942;52.462;10.846;2023-07-16T05:00:56;19.9;89.7
74484;SHT31;62942;52.462;10.846;2023-07-16T05:01:56;19.9;89.5
74484;SHT31;62942;52.462;10.846;2023-07-16T05:02:56;20;89.1
74484;SHT31;62942;52.462;10.846;2023-07-16T05:04:06;20;88.7
74484;SHT31;62942;52.462;10.846;2023-07-16T05:05:06;20.1;88.6
74484;SHT31;62942;52.462;10.846;2023-07-16T05:06:06;20.1;87.9
74484;SHT31;62942;52.462;10.846;2023-07-16T05:07:06;20.1;87.8
74484;SHT31;62942;52.462;10.846;2023-07-16T05:08:16;20;87.6
74484;SHT31;62942;52.462;10.846;2023-07-16T05:09:16;20.1;87.4
74484;SHT31;62942;52.462;10.846;2023-07-16T05:10:26;20;87.3
74484;SHT31;62942;52.462;10.846;2023-07-16T05:11:36;20;87.4
74484;SHT31;62942;52.462;10.846;2023-07-16T05:12:36;20;87.4
74484;SHT31;62942;52.462;10.846;2023-07-16T05:13:36;20;87.5
74484;SHT31;62942;52.462;10.846;2023-07-16T05:14:46;19.9;87.5
74484;SHT31;62942;52.462;10.846;2023-07-16T05:15:56;19.9;87.6
74484;SHT31;62942;52.462;10.846;2023-07-16T05:16:56;19.8;87.7
74484;SHT31;62942;52.462;10.846;2023-07-16T05:18:06;19.8;87.8
74484;SHT31;62942;52.462;10.846;2023-07-16T05:19:16;19.8;87.6
74484;SHT31;62942;52.462;10.846;2023-07-16T05:20:16;19.8;87.7
74484;SHT31;62942;52.462;10.846;2023-07-16T05:21:26;19.8;87.7
74484;SHT31;62942;52.462;10.846;2023-07-16T05:22:36;19.8;87.8
74484;SHT31;62942;52.462;10.846;2023-07-16T05:23:46;19.8;87.8
74484;SHT31;62942;52.462;10.846;2023-07-16T05:24:56;19.8;87.8
74484;SHT31;62942;52.462;10.846;2023-07-16T05:25:56;19.8;87.6
74484;SHT31;62942;52.462;10.846;2023-07-16T05:27:06;19.8;87.6
74484;SHT31;62942;52.462;10.846;2023-07-16T05:28:18;19.8;87.6
74484;SHT31;62942;52.462;10.846;2023-07-16T05:29:26;19.9;87.6
74484;SHT31;62942;52.462;10.846;2023-07-16T05:30:36;19.9;87.6
74484;SHT31;62942;52.462;10.846;2023-07-16T05:31:46;19.9;87.6
74484;SHT31;62942;52.462;10.846;2023-07-16T05:32:56;20;87.5
74484;SHT31;62942;52.462;10.846;2023-07-16T05:33:56;20;87.4
74484;SHT31;62942;52.462;10.846;2023-07-16T05:35:06;20;86.9
74484;SHT31;62942;52.462;10.846;2023-07-16T05:36:06;20;86.5
74484;SHT31;62942;52.462;10.846;2023-07-16T05:37:06;20.1;86
74484;SHT31;62942;52.462;10.846;2023-07-16T05:38:16;20.1;85.7
74484;SHT31;62942;52.462;10.846;2023-07-16T05:39:26;20.2;84.4
74484;SHT31;62942;52.462;10.846;2023-07-16T05:40:36;20.2;83.7
74484;SHT31;62942;52.462;10.846;2023-07-16T05:41:36;20.3;83.3
74484;SHT31;62942;52.462;10.846;2023-07-16T05:42:46;20.4;83.4
74484;SHT31;62942;52.462;10.846;2023-07-16T05:43:46;20.5;82.5
74484;SHT31;62942;52.462;10.846;2023-07-16T05:44:56;20.6;80.8
74484;SHT31;62942;52.462;10.846;2023-07-16T05:46:06;20.7;79.5
74484;SHT31;62942;52.462;10.846;2023-07-16T05:47:06;20.8;80
74484;SHT31;62942;52.462;10.846;2023-07-16T05:48:06;20.9;79
74484;SHT31;62942;52.462;10.846;2023-07-16T05:49:16;21;78.9
74484;SHT31;62942;52.462;10.846;2023-07-16T05:50:26;21.1;78.8
74484;SHT31;62942;52.462;10.846;2023-07-16T05:51:26;21.2;77.4
74484;SHT31;62942;52.462;10.846;2023-07-16T05:52:36;21.3;76.8
74484;SHT31;62942;52.462;10.846;2023-07-16T05:53:36;21.4;77.4
74484;SHT31;62942;52.462;10.846;2023-07-16T05:54:36;21.5;77
74484;SHT31;62942;52.462;10.846;2023-07-16T05:55:36;21.6;76
74484;SHT31;62942;52.462;10.846;2023-07-16T05:56:46;21.7;76.3
74484;SHT31;62942;52.462;10.846;2023-07-16T05:57:46;21.8;75.4
74484;SHT31;62942;52.462;10.846;2023-07-16T05:58:56;21.9;75.6
74484;SHT31;62942;52.462;10.846;2023-07-16T05:59:56;22;75.8
74484;SHT31;62942;52.462;10.846;2023-07-16T06:00:56;22.1;74.9
74484;SHT31;62942;52.462;10.846;2023-07-16T06:02:06;22.2;74.1
74484;SHT31;62942;52.462;10.846;2023-07-16T06:03:16;22.3;74.1
74484;SHT31;62942;52.462;10.846;2023-07-16T06:04:16;22.3;73.9
74484;SHT31;62942;52.462;10.846;2023-07-16T06:05:16;22.4;73.3
74484;SHT31;62942;52.462;10.846;2023-07-16T06:06:26;22.5;73.2
74484;SHT31;62942;52.462;10.846;2023-07-16T06:07:36;22.6;72.7
74484;SHT31;62942;52.462;10.846;2023-07-16T06:08:46;22.7;72.3
74484;SHT31;62942;52.462;10.846;2023-07-16T06:09:56;22.8;72
74484;SHT31;62942;52.462;10.846;2023-07-16T06:11:06;22.9;71.3
74484;SHT31;62942;52.462;10.846;2023-07-16T06:12:16;23;70.9
74484;SHT31;62942;52.462;10.846;2023-07-16T06:13:26;23.1;70.5
74484;SHT31;62942;52.462;10.846;2023-07-16T06:14:36;23.3;70.3
74484;SHT31;62942;52.462;10.846;2023-07-16T06:15:46;23.4;69.7
74484;SHT31;62942;52.462;10.846;2023-07-16T06:16:56;23.4;69.1
74484;SHT31;62942;52.462;10.846;2023-07-16T06:18:06;23.5;69.1
74484;SHT31;62942;52.462;10.846;2023-07-16T06:19:06;23.6;69
74484;SHT31;62942;52.462;10.846;2023-07-16T06:20:06;23.6;68.7
74484;SHT31;62942;52.462;10.846;2023-07-16T06:21:06;23.8;68.5
74484;SHT31;62942;52.462;10.846;2023-07-16T06:22:16;23.9;67.9
74484;SHT31;62942;52.462;10.846;2023-07-16T06:23:16;24;67.4
74484;SHT31;62942;52.462;10.846;2023-07-16T06:24:26;24.1;67.2
74484;SHT31;62942;52.462;10.846;2023-07-16T06:25:36;24.2;67.1
74484;SHT31;62942;52.462;10.846;2023-07-16T06:26:36;24.3;66.9
74484;SHT31;62942;52.462;10.846;2023-07-16T06:27:46;24.4;66.4
74484;SHT31;62942;52.462;10.846;2023-07-16T06:28:46;24.4;66.2
74484;SHT31;62942;52.462;10.846;2023-07-16T06:29:46;24.3;65.8
74484;SHT31;62942;52.462;10.846;2023-07-16T06:30:56;24.3;65.7
74484;SHT31;62942;52.462;10.846;2023-07-16T06:31:56;24.2;65.8
74484;SHT31;62942;52.462;10.846;2023-07-16T06:32:56;24.2;65.2
74484;SHT31;62942;52.462;10.846;2023-07-16T06:34:06;24.1;65
74484;SHT31;62942;52.462;10.846;2023-07-16T06:35:06;24;64.6
74484;SHT31;62942;52.462;10.846;2023-07-16T06:36:16;23.9;64.8
74484;SHT31;62942;52.462;10.846;2023-07-16T06:37:26;23.8;65.4
74484;SHT31;62942;52.462;10.846;2023-07-16T06:38:26;23.9;65.8
74484;SHT31;62942;52.462;10.846;2023-07-16T06:39:26;24;65.2
74484;SHT31;62942;52.462;10.846;2023-07-16T06:40:36;24;64.5
74484;SHT31;62942;52.462;10.846;2023-07-16T06:41:46;23.9;64.7
74484;SHT31;62942;52.462;10.846;2023-07-16T06:42:46;23.9;64.9
74484;SHT31;62942;52.462;10.846;2023-07-16T06:43:56;23.9;63.9
74484;SHT31;62942;52.462;10.846;2023-07-16T06:45:06;24;64.1
74484;SHT31;62942;52.462;10.846;2023-07-16T06:46:06;24;64.2
74484;SHT31;62942;52.462;10.846;2023-07-16T06:47:06;24;64.5
74484;SHT31;62942;52.462;10.846;2023-07-16T06:48:16;24;64.4
74484;SHT31;62942;52.462;10.846;2023-07-16T06:49:16;24.1;64.4
74484;SHT31;62942;52.462;10.846;2023-07-16T06:50:26;24.2;64.2
74484;SHT31;62942;52.462;10.846;2023-07-16T06:51:36;24.3;63.6
74484;SHT31;62942;52.462;10.846;2023-07-16T06:52:46;24.2;63.4
74484;SHT31;62942;52.462;10.846;2023-07-16T06:53:56;24.3;63.1
74484;SHT31;62942;52.462;10.846;2023-07-16T06:54:56;24.3;63.1
74484;SHT31;62942;52.462;10.846;2023-07-16T06:56:06;24.5;63.4
74484;SHT31;62942;52.462;10.846;2023-07-16T06:57:06;24.5;62.9
74484;SHT31;62942;52.462;10.846;2023-07-16T06:58:16;24.5;62.4
74484;SHT31;62942;52.462;10.846;2023-07-16T06:59:26;24.6;62.5
74484;SHT31;62942;52.462;10.846;2023-07-16T07:00:26;24.6;62.6
74484;SHT31;62942;52.462;10.846;2023-07-16T07:01:26;24.6;61.7
74484;SHT31;62942;52.462;10.846;2023-07-16T07:02:26;24.6;62.5
74484;SHT31;62942;52.462;10.846;2023-07-16T07:03:36;24.6;62.8
74484;SHT31;62942;52.462;10.846;2023-07-16T07:04:36;24.7;62.5
74484;SHT31;62942;52.462;10.846;2023-07-16T07:05:46;24.7;61.9
74484;SHT31;62942;52.462;10.846;2023-07-16T07:06:46;24.7;61.5